METAR Data
IDs: Format: Raw Decoded Include TAF

Data at: 0053 UTC 19 Nov 2018

PAKK 190018Z AUTO 02005KT 9SM UP OVC016 00/M01 A2940 RMK AO2 UPB14SNE14 P0000 FZRANO
PAKK 182356Z AUTO 04004KT 4SM -SN BR OVC012 00/M02 A2940 RMK AO2 UPB34E40SNE34B40 SLP971 P0000 60000 T00001017 10000 21022 58000 FZRANO
PAKK 182335Z AUTO 04005KT 9SM UP BKN012 OVC019 00/M02 A2941 RMK AO2 UPB34SNE34 P0000 FZRANO
PAKK 182256Z AUTO 04005KT 8SM -SN FEW009 BKN016 OVC021 00/M02 A2941 RMK AO2 UPB04E46SNB46 SLP971 P0000 T00001017 FZRANO
PAKK 182235Z AUTO VRB04KT 10SM UP FEW009 BKN023 OVC037 00/M02 A2940 RMK AO2 UPB04 P0000 FZRANO
PAKK 182156Z AUTO 04005KT 10SM OVC021 00/M02 A2941 RMK AO2 UPE07B25E38SNB07E18 SLP971 P0000 T00001022 FZRANO
PAKK 182056Z AUTO 04005KT 10SM UP OVC021 M01/M03 A2941 RMK AO2 UPB33SNB15E33 SLP971 P0000 60000 T10061028 53006 FZRANO
PAKK 181956Z AUTO 02007KT 10SM BKN020 OVC027 M01/M03 A2940 RMK AO2 SNB16E36 SLP968 P0000 T10111028 FZRANO
PAKK 181856Z AUTO 02007KT 10SM OVC025 M02/M03 A2939 RMK AO2 SLP966 T10171033 FZRANO
PAKK 181756Z AUTO 01007KT 10SM BKN021 BKN029 OVC070 M02/M03 A2939 RMK AO2 SNE02 SLP965 P0000 60001 T10221033 11022 21022 55001 FZRANO
PAKK 181656Z AUTO 01007KT 9SM -SN OVC017 M02/M03 A2938 RMK AO2 SLP963 P0001 T10221033 FZRANO
PAKK 181615Z AUTO 02008KT 4SM -SN BR OVC020 M02/M04 A2938 RMK AO2 P0001 FZRANO
PAKK 181607Z AUTO 01008KT 2 1/2SM -SN BR OVC022 M02/M04 A2938 RMK AO2 P0001 FZRANO
PAKK 181556Z AUTO 02007KT 1 3/4SM -SN BR OVC020 M02/M03 A2939 RMK AO2 SLP965 P0000 T10221033 FZRANO
PAKK 181549Z AUTO 02007KT 2SM -SN BR OVC020 M02/M04 A2939 RMK AO2 P0000 FZRANO
PAKK 181539Z AUTO 02008KT 3SM -SN BR OVC020 M02/M04 A2939 RMK AO2 P0000 FZRANO
PAKK 181532Z AUTO 02006KT 2 1/2SM -SN BR OVC020 M02/M04 A2939 RMK AO2 P0000 FZRANO
PAKK 181456Z AUTO 01009KT 3SM -SN BR FEW016 BKN022 OVC028 M02/M04 A2939 RMK AO2 SLP966 P0000 60000 T10221039 58005 FZRANO
PAKK 181356Z AUTO 01007KT 6SM -SN BR OVC015 M02/M04 A2940 RMK AO2 SNB13 SLP969 P0000 T10221044 FZRANO
PAKK 181325Z AUTO 02006KT 9SM -SN BKN017 BKN041 OVC050 M02/M06 A2940 RMK AO2 SNB13 P0000 FZRANO
PAKK 181256Z AUTO 02007KT 10SM BKN046 M02/M06 A2941 RMK AO2 SLP971 T10221056 FZRANO
PAKK 181156Z AUTO 01007KT 10SM FEW030 BKN055 BKN070 M02/M07 A2941 RMK AO2 SLP971 T10221067 11017 21022 58004 FZRANO
PAKK 181056Z AUTO 01008KT 10SM OVC065 M02/M07 A2941 RMK AO2 SLP972 T10171067 FZRANO
PAKK 180956Z AUTO 36006KT 10SM SCT044 OVC065 M02/M06 A2942 RMK AO2 SLP975 T10171061 FZRANO
PAKK 180856Z AUTO 01006KT 10SM SCT060 OVC080 M02/M06 A2942 RMK AO2 SLP975 T10171061 400111022 55000 FZRANO
PAKK 180756Z AUTO 01007KT 10SM SCT033 BKN048 OVC060 M02/M07 A2941 RMK AO2 SLP974 T10171067 FZRANO
PAKK 180656Z AUTO 01006KT 10SM OVC075 M02/M07 A2941 RMK AO2 SLP973 T10171067 FZRANO
PAKK 180556Z AUTO 01008KT 10SM BKN100 M02/M07 A2942 RMK AO2 SLP975 T10221067 10000 21022 56008 FZRANO
PAKK 180456Z AUTO 01008KT 10SM BKN075 BKN100 M02/M07 A2943 RMK AO2 SLP978 T10221067 FZRANO
PAKK 180356Z AUTO 02010KT 10SM OVC095 M02/M06 A2943 RMK AO2 SLP978 T10171061 FZRANO
PAKK 180256Z AUTO 02009KT 10SM OVC095 M02/M06 A2944 RMK AO2 SLP983 T10171056 57007 FZRANO
PAKK 180156Z AUTO 01008KT 10SM OVC100 M01/M06 A2945 RMK AO2 SLP987 T10111056 FZRANO
PAKK 180056Z AUTO 01008KT 10SM FEW050 OVC090 M01/M05 A2946 RMK AO2 SLP988 T10111050 FZRANO
PAKK 172356Z AUTO 02007KT 10SM BKN050 BKN080 00/M06 A2947 RMK AO2 SLP992 60000 T00001056 10011 20000 56012 FZRANO
PAKK 172156Z AUTO 03007KT 10SM FEW033 SCT041 BKN075 00/M03 A2948 RMK AO2 RAB02E11B31E38SNE31 SLP997 P0000 T00001033 FZRANO
PAKK 172056Z AUTO 03008KT 10SM -SN BKN043 OVC050 01/M03 A2950 RMK AO2 UPE51SNB51 SLP003 P0000 60000 T00061028 58004 FZRANO
PAKK 171956Z AUTO 03007KT 10SM UP BKN032 OVC047 00/M02 A2951 RMK AO2 UPB15RAB22E30SNE15 SLP005 P0000 T00001017 FZRANO
PAKK 171929Z AUTO 04006KT 10SM -RA BKN030 OVC041 00/M01 A2951 RMK AO2 UPB15E22RAB22SNE15 P0000 FZRANO
PAKK 171921Z AUTO 04006KT 10SM UP OVC028 01/M01 A2951 RMK AO2 UPB15SNE15 P0000 FZRANO
PAKK 171910Z AUTO 03007KT 9SM -SN OVC030 00/M01 A2951 RMK AO2 P0000 FZRANO
PAKK 171856Z AUTO 03006KT 8SM -SN OVC028 00/M01 A2951 RMK AO2 SLP006 P0000 T00001011 FZRANO
PAKK 171756Z AUTO 04007KT 6SM -SN BR OVC028 01/M02 A2951 RMK AO2 SLP007 P0000 60000 T00061017 10011 20000 58002 FZRANO
PAKK 171656Z AUTO 03007KT 8SM -SN OVC026 01/M02 A2952 RMK AO2 SLP010 P0000 T00061022 FZRANO
PAKK 171651Z AUTO 03006KT 9SM -SN BKN026 OVC031 01/M02 A2952 RMK AO2 P0000 FZRANO
PAKK 171556Z AUTO 03006KT 10SM -SN OVC034 01/M03 A2952 RMK AO2 UPB29E51RAB51E54SNE29B54 SLP010 P0000 T00061028 FZRANO
PAKK 171456Z AUTO 04007KT 9SM -SN BKN039 OVC055 01/M03 A2953 RMK AO2 RAE42SNB42 SLP014 P0000 60000 T00061028 56013 FZRANO
PAKK 171356Z AUTO 03007KT 10SM -RA FEW029 OVC033 01/M02 A2954 RMK AO2 RAE24B41UPB24E28 SLP017 P0000 T00061022 FZRANO
PAKK 171304Z AUTO 01008KT 10SM -RA OVC031 01/M02 A2955 RMK AO2 P0000 FZRANO
PAKK 171256Z AUTO 02007KT 10SM -RA BKN029 OVC034 01/M02 A2955 RMK AO2 UPB15E22 SLP021 P0000 T00061017 FZRANO